PFSH

Details ICAO PFSH (SKK)
Name Shaktoolik New
Region USA (Alaska)
Timezone America/Anchorage (UTC-8.0)
Plans Departing 5
Arriving 3
Stats Elevation 24 ft / 7 m (AMSL)
Location 64.366878° -161.213287°
Runways 2
Magnetic Variation 11.868° E
Sunrise 2018-05-21 13:08:26 UTC / 2018-05-21 05:08:26 Local
Sunset 2018-05-22 08:17:22 UTC / 2018-05-22 00:17:22 Local
Advertisement - Login to hide

Runways

ID Width Length Bearing (true) Bearing (mag) Surface Threshold Offset Overrun Length
14 75 ft / 23 m 4,006 ft / 1,221 m 157.61° 145.74° Gravel 0 ft / 0 m 0 ft / 0 m
15 43 ft / 13 m 2,227 ft / 679 m 170.05° 158.18° Dirt 0 ft / 0 m 0 ft / 0 m
32 75 ft / 23 m 4,006 ft / 1,221 m 337.62° 325.75° Gravel 0 ft / 0 m 0 ft / 0 m
33 43 ft / 13 m 2,227 ft / 679 m 350.06° 338.19° Dirt 0 ft / 0 m 0 ft / 0 m

Map

Weather


0- 5 10 15 20 25 30 35+ Temperature / ° C

Clouds and Precipitation
Forecast for 2018-05-22 00:00 UTC. Updated 4 hours ago

Ground ~20,000 ft ~40,000 ft Winds

METAR

PFSH 220256Z AUTO 36013KT 9SM BKN080 10/02 A2954 RMK AO2 SLP004 T01000022 55002 PWINO

TAF

Not found

Frequencies

Recorded 121.55 MHz AWOS-3
Approach 135.70 MHz Anchorage ARTCC
Unicom 122.80 MHz CTAF
Warning: Do not use this data for real-world aviation or navigation. No guarantee of current accuracy is given.